BAW688 EGLL-LGSR
Flight info
| Callsign | BAW688 |
|---|---|
| Flight time | 3h 16m |
| Altitude | 35000 |
| Route | DET1J DET L6 DVR UL9 KONAN DCT KOK DCT PITES DCT EDISA DCT PICWI DCT UTABA DCT BEMKI DCT ELMEM DCT DIRAB DCT VESAL DCT VAKSU DCT KOFER DCT PINDO DCT PIKOS DCT KEA UL607 GENDO L607 NETIS M601 PEXAN PEXAN1A |
| Aircraft | A320/M-SDE3FGHIRWY/LB1 |
Departure
| Time | 2026-04-26 06:10 |
|---|---|
| Airport | London Heathrow Airport (EGLL) |
Arrival
| Time | 2026-04-26 09:26 |
|---|---|
| Airport | Santorini International Airport (LGSR) |
| Time | Latitude | Longitude | Altitude | Speed | Heading |
|---|---|---|---|---|---|
| 2026-04-26 05:39 | 51.47271 | -0.48585 | 90 ft | 0 kts | 270° |
| 2026-04-26 06:03 | 51.47271 | -0.48554 | 87 ft | 4 kts | 270° |
| 2026-04-26 06:04 | 51.47272 | -0.48519 | 89 ft | 3 kts | 269° |
| 2026-04-26 06:04 | 51.47276 | -0.48483 | 87 ft | 4 kts | 220° |
| 2026-04-26 06:04 | 51.47296 | -0.48474 | 86 ft | 4 kts | 180° |
| 2026-04-26 06:04 | 51.47310 | -0.48474 | 88 ft | 1 kts | 179° |
| 2026-04-26 06:06 | 51.47307 | -0.48474 | 86 ft | 2 kts | 179° |
| 2026-04-26 06:06 | 51.47271 | -0.48473 | 87 ft | 7 kts | 179° |
| 2026-04-26 06:07 | 51.47211 | -0.48471 | 86 ft | 10 kts | 179° |
| 2026-04-26 06:07 | 51.47136 | -0.48470 | 86 ft | 12 kts | 179° |
| 2026-04-26 06:07 | 51.47047 | -0.48468 | 86 ft | 12 kts | 180° |
| 2026-04-26 06:07 | 51.46970 | -0.48470 | 88 ft | 10 kts | 180° |
| 2026-04-26 06:08 | 51.46892 | -0.48469 | 88 ft | 13 kts | 180° |
| 2026-04-26 06:08 | 51.46790 | -0.48469 | 86 ft | 16 kts | 180° |
| 2026-04-26 06:08 | 51.46670 | -0.48467 | 86 ft | 17 kts | 179° |
| 2026-04-26 06:08 | 51.46557 | -0.48466 | 86 ft | 17 kts | 179° |
| 2026-04-26 06:09 | 51.46484 | -0.48426 | 88 ft | 10 kts | 121° |
| 2026-04-26 06:09 | 51.46480 | -0.48366 | 87 ft | 1 kts | 88° |
| 2026-04-26 06:09 | 51.46480 | -0.48354 | 87 ft | 2 kts | 88° |
| 2026-04-26 06:09 | 51.46486 | -0.48061 | 87 ft | 60 kts | 89° |
| 2026-04-26 06:10 | 51.46488 | -0.47058 | 89 ft | 117 kts | 89° |
| 2026-04-26 06:10 | 51.46501 | -0.45533 | 182 ft | 155 kts | 89° |
| 2026-04-26 06:10 | 51.46495 | -0.43721 | 731 ft | 163 kts | 88° |
| 2026-04-26 06:10 | 51.46460 | -0.41860 | 1039 ft | 178 kts | 104° |
| 2026-04-26 06:11 | 51.45758 | -0.40075 | 1341 ft | 203 kts | 129° |
| 2026-04-26 06:11 | 51.44820 | -0.38213 | 1702 ft | 227 kts | 127° |
| 2026-04-26 06:11 | 51.43910 | -0.36029 | 2215 ft | 244 kts | 112° |
| 2026-04-26 06:11 | 51.43476 | -0.33350 | 2989 ft | 251 kts | 102° |
| 2026-04-26 06:12 | 51.43096 | -0.30606 | 3891 ft | 254 kts | 102° |
| 2026-04-26 06:12 | 51.42701 | -0.27835 | 4783 ft | 256 kts | 103° |
| 2026-04-26 06:12 | 51.42310 | -0.25031 | 5628 ft | 260 kts | 102° |
| 2026-04-26 06:12 | 51.41919 | -0.22169 | 6408 ft | 267 kts | 102° |
| 2026-04-26 06:13 | 51.41521 | -0.19226 | 7126 ft | 274 kts | 102° |
| 2026-04-26 06:13 | 51.41119 | -0.16257 | 7869 ft | 279 kts | 102° |
| 2026-04-26 06:13 | 51.40698 | -0.13162 | 8656 ft | 283 kts | 102° |
| 2026-04-26 06:13 | 51.40274 | -0.10070 | 9435 ft | 287 kts | 102° |
| 2026-04-26 06:14 | 51.39842 | -0.06922 | 10223 ft | 291 kts | 102° |
| 2026-04-26 06:14 | 51.39397 | -0.03701 | 10665 ft | 307 kts | 102° |
| 2026-04-26 06:14 | 51.38915 | -0.00245 | 10854 ft | 330 kts | 103° |
| 2026-04-26 06:14 | 51.38395 | 0.03465 | 11119 ft | 349 kts | 102° |
| 2026-04-26 06:15 | 51.37858 | 0.07301 | 11703 ft | 356 kts | 103° |
| 2026-04-26 06:15 | 51.37321 | 0.11148 | 12333 ft | 362 kts | 103° |
| 2026-04-26 06:15 | 51.36769 | 0.15108 | 12978 ft | 367 kts | 103° |
| 2026-04-26 06:15 | 51.36207 | 0.19119 | 13685 ft | 371 kts | 103° |
| 2026-04-26 06:16 | 51.35636 | 0.23169 | 14361 ft | 375 kts | 103° |
| 2026-04-26 06:16 | 51.35057 | 0.27262 | 14985 ft | 379 kts | 103° |
| 2026-04-26 06:16 | 51.34470 | 0.31399 | 15591 ft | 383 kts | 103° |
| 2026-04-26 06:16 | 51.33875 | 0.35578 | 16194 ft | 387 kts | 103° |
| 2026-04-26 06:17 | 51.33271 | 0.39788 | 16797 ft | 390 kts | 103° |
| 2026-04-26 06:17 | 51.32660 | 0.44035 | 17349 ft | 393 kts | 103° |
| 2026-04-26 06:17 | 51.32045 | 0.48326 | 17969 ft | 396 kts | 103° |
| 2026-04-26 06:17 | 51.31433 | 0.52598 | 18505 ft | 401 kts | 102° |
| 2026-04-26 06:18 | 51.30805 | 0.56974 | 19010 ft | 406 kts | 103° |
| 2026-04-26 06:18 | 51.30152 | 0.61394 | 19524 ft | 410 kts | 104° |
| 2026-04-26 06:18 | 51.29414 | 0.65808 | 20061 ft | 413 kts | 105° |
| 2026-04-26 06:18 | 51.28604 | 0.70238 | 20619 ft | 417 kts | 107° |
| 2026-04-26 06:19 | 51.27757 | 0.74689 | 21163 ft | 420 kts | 107° |
| 2026-04-26 06:19 | 51.26897 | 0.79166 | 21687 ft | 424 kts | 107° |
| 2026-04-26 06:19 | 51.26033 | 0.83689 | 22195 ft | 427 kts | 107° |
| 2026-04-26 06:19 | 51.25173 | 0.88254 | 22684 ft | 431 kts | 107° |
| 2026-04-26 06:20 | 51.24314 | 0.92861 | 23202 ft | 434 kts | 107° |
| 2026-04-26 06:20 | 51.23455 | 0.97497 | 23717 ft | 438 kts | 106° |
| 2026-04-26 06:20 | 51.22591 | 1.02181 | 24176 ft | 441 kts | 106° |
| 2026-04-26 06:20 | 51.21720 | 1.06885 | 24599 ft | 444 kts | 106° |
| 2026-04-26 06:21 | 51.20841 | 1.11619 | 25040 ft | 447 kts | 106° |
| 2026-04-26 06:21 | 51.19952 | 1.16385 | 25468 ft | 450 kts | 106° |
| 2026-04-26 06:21 | 51.19054 | 1.21184 | 25888 ft | 453 kts | 107° |
| 2026-04-26 06:21 | 51.18145 | 1.26012 | 26302 ft | 456 kts | 107° |
| 2026-04-26 06:22 | 51.17228 | 1.30861 | 26710 ft | 459 kts | 107° |
| 2026-04-26 06:22 | 51.16415 | 1.35789 | 27116 ft | 461 kts | 100° |
| 2026-04-26 06:22 | 51.16025 | 1.40872 | 27506 ft | 463 kts | 93° |
| 2026-04-26 06:22 | 51.15789 | 1.46000 | 27901 ft | 466 kts | 93° |
| 2026-04-26 06:23 | 51.15548 | 1.51179 | 28279 ft | 469 kts | 93° |
| 2026-04-26 06:23 | 51.15299 | 1.56376 | 28645 ft | 472 kts | 93° |
| 2026-04-26 06:23 | 51.15043 | 1.61598 | 29005 ft | 474 kts | 93° |
| 2026-04-26 06:23 | 51.14781 | 1.66847 | 29349 ft | 476 kts | 93° |
| 2026-04-26 06:24 | 51.14516 | 1.72116 | 29690 ft | 479 kts | 93° |
| 2026-04-26 06:24 | 51.14251 | 1.77351 | 30003 ft | 481 kts | 93° |
| 2026-04-26 06:24 | 51.13980 | 1.82671 | 30349 ft | 484 kts | 93° |
| 2026-04-26 06:24 | 51.13706 | 1.88023 | 30635 ft | 486 kts | 93° |
| 2026-04-26 06:25 | 51.13426 | 1.93380 | 31036 ft | 485 kts | 93° |
| 2026-04-26 06:25 | 51.13143 | 1.98718 | 31467 ft | 483 kts | 93° |
| 2026-04-26 06:25 | 51.12861 | 2.04039 | 31882 ft | 482 kts | 93° |
| 2026-04-26 06:25 | 51.12582 | 2.09347 | 32292 ft | 481 kts | 93° |
| 2026-04-26 06:26 | 51.12301 | 2.14643 | 32703 ft | 479 kts | 93° |
| 2026-04-26 06:26 | 51.12019 | 2.19932 | 33110 ft | 478 kts | 93° |
| 2026-04-26 06:26 | 51.11734 | 2.25199 | 33514 ft | 477 kts | 94° |
| 2026-04-26 06:26 | 51.11445 | 2.30449 | 33919 ft | 476 kts | 94° |
| 2026-04-26 06:27 | 51.11153 | 2.35698 | 34316 ft | 475 kts | 94° |
| 2026-04-26 06:27 | 51.10857 | 2.40943 | 34681 ft | 474 kts | 94° |
| 2026-04-26 06:27 | 51.10561 | 2.46155 | 35043 ft | 473 kts | 94° |
| 2026-04-26 06:27 | 51.10263 | 2.51371 | 35264 ft | 473 kts | 94° |
| 2026-04-26 06:28 | 51.09964 | 2.56576 | 35316 ft | 472 kts | 94° |
| 2026-04-26 06:28 | 51.08710 | 2.66733 | 35315 ft | 473 kts | 109° |
| 2026-04-26 06:29 | 51.05871 | 2.76154 | 35315 ft | 473 kts | 117° |
| 2026-04-26 06:29 | 51.02816 | 2.85428 | 35332 ft | 473 kts | 117° |
| 2026-04-26 06:30 | 50.99770 | 2.94671 | 35324 ft | 472 kts | 117° |
| 2026-04-26 06:30 | 50.96711 | 3.03903 | 35322 ft | 472 kts | 118° |
| 2026-04-26 06:31 | 50.93653 | 3.13114 | 35316 ft | 472 kts | 118° |
| 2026-04-26 06:31 | 50.90585 | 3.22311 | 35311 ft | 472 kts | 118° |
| 2026-04-26 06:32 | 50.87504 | 3.31495 | 35317 ft | 471 kts | 118° |
| 2026-04-26 06:32 | 50.84432 | 3.40622 | 35311 ft | 469 kts | 118° |
| 2026-04-26 06:33 | 50.81362 | 3.49720 | 35310 ft | 469 kts | 118° |
| 2026-04-26 06:33 | 50.78296 | 3.58779 | 35315 ft | 470 kts | 118° |
| 2026-04-26 06:34 | 50.75199 | 3.67882 | 35314 ft | 470 kts | 118° |
| 2026-04-26 06:34 | 50.72097 | 3.76973 | 35311 ft | 469 kts | 118° |
| 2026-04-26 06:35 | 50.69000 | 3.86005 | 35312 ft | 467 kts | 119° |
| 2026-04-26 06:35 | 50.65898 | 3.95021 | 35309 ft | 467 kts | 119° |
| 2026-04-26 06:36 | 50.62797 | 4.04012 | 35305 ft | 467 kts | 119° |
| 2026-04-26 06:36 | 50.59689 | 4.13001 | 35302 ft | 467 kts | 119° |
| 2026-04-26 06:37 | 50.56576 | 4.21968 | 35293 ft | 467 kts | 119° |
| 2026-04-26 06:37 | 50.53444 | 4.30956 | 35302 ft | 469 kts | 119° |
| 2026-04-26 06:38 | 50.50303 | 4.39928 | 35304 ft | 469 kts | 119° |
| 2026-04-26 06:38 | 50.47158 | 4.48901 | 35301 ft | 469 kts | 119° |
| 2026-04-26 06:39 | 50.44007 | 4.57871 | 35302 ft | 469 kts | 119° |
| 2026-04-26 06:39 | 50.40843 | 4.66808 | 35297 ft | 468 kts | 119° |
| 2026-04-26 06:40 | 50.37709 | 4.75635 | 35292 ft | 467 kts | 120° |
| 2026-04-26 06:40 | 50.34546 | 4.84511 | 35289 ft | 467 kts | 120° |
| 2026-04-26 06:41 | 50.31378 | 4.93383 | 35280 ft | 467 kts | 120° |
| 2026-04-26 06:41 | 50.28198 | 5.02255 | 35282 ft | 468 kts | 120° |
| 2026-04-26 06:42 | 50.25003 | 5.11121 | 35280 ft | 468 kts | 120° |
| 2026-04-26 06:42 | 50.21808 | 5.19970 | 35279 ft | 468 kts | 120° |
| 2026-04-26 06:43 | 50.18610 | 5.28815 | 35277 ft | 468 kts | 120° |
| 2026-04-26 06:43 | 50.15404 | 5.37632 | 35271 ft | 467 kts | 120° |
| 2026-04-26 06:44 | 50.12732 | 5.44954 | 35276 ft | 467 kts | 120° |
| 2026-04-26 06:44 | 50.09519 | 5.53754 | 35261 ft | 468 kts | 120° |
| 2026-04-26 06:45 | 50.06289 | 5.62556 | 35264 ft | 468 kts | 120° |
| 2026-04-26 06:45 | 50.03048 | 5.71341 | 35257 ft | 468 kts | 121° |
| 2026-04-26 06:46 | 49.99803 | 5.80128 | 35258 ft | 468 kts | 120° |
| 2026-04-26 06:46 | 49.96555 | 5.88912 | 35254 ft | 468 kts | 121° |
| 2026-04-26 06:47 | 49.93296 | 5.97681 | 35254 ft | 469 kts | 121° |
| 2026-04-26 06:47 | 49.90044 | 6.06382 | 35261 ft | 469 kts | 121° |
| 2026-04-26 06:48 | 49.86749 | 6.15189 | 35260 ft | 469 kts | 121° |
| 2026-04-26 06:48 | 49.83487 | 6.23862 | 35263 ft | 469 kts | 121° |
| 2026-04-26 06:49 | 49.80197 | 6.32587 | 35263 ft | 469 kts | 121° |
| 2026-04-26 06:49 | 49.76902 | 6.41300 | 35258 ft | 469 kts | 121° |
| 2026-04-26 06:50 | 49.73592 | 6.50006 | 35259 ft | 469 kts | 121° |
| 2026-04-26 06:50 | 49.70240 | 6.58654 | 35232 ft | 469 kts | 122° |
| 2026-04-26 06:51 | 49.66790 | 6.67199 | 35235 ft | 469 kts | 123° |
| 2026-04-26 06:51 | 49.61592 | 6.79987 | 35232 ft | 468 kts | 123° |
| 2026-04-26 06:52 | 49.58145 | 6.88511 | 35236 ft | 468 kts | 123° |
| 2026-04-26 06:52 | 49.54706 | 6.97011 | 35233 ft | 468 kts | 123° |
| 2026-04-26 06:53 | 49.51260 | 7.05508 | 35239 ft | 468 kts | 123° |
| 2026-04-26 06:53 | 49.47811 | 7.13988 | 35239 ft | 468 kts | 123° |
| 2026-04-26 06:54 | 49.44370 | 7.22405 | 35247 ft | 467 kts | 124° |
| 2026-04-26 06:54 | 49.40902 | 7.30828 | 35247 ft | 466 kts | 124° |
| 2026-04-26 06:55 | 49.37430 | 7.39230 | 35249 ft | 466 kts | 124° |
| 2026-04-26 06:55 | 49.33961 | 7.47634 | 35249 ft | 466 kts | 124° |
| 2026-04-26 06:56 | 49.30485 | 7.56034 | 35265 ft | 466 kts | 124° |
| 2026-04-26 06:56 | 49.27010 | 7.64401 | 35248 ft | 465 kts | 124° |
| 2026-04-26 06:57 | 49.23527 | 7.72731 | 35260 ft | 465 kts | 124° |
| 2026-04-26 06:57 | 49.20048 | 7.81048 | 35254 ft | 466 kts | 124° |
| 2026-04-26 06:58 | 49.16536 | 7.89433 | 35250 ft | 466 kts | 124° |
| 2026-04-26 06:58 | 49.13054 | 7.97706 | 35242 ft | 466 kts | 125° |
| 2026-04-26 06:59 | 49.09537 | 8.06019 | 35251 ft | 467 kts | 125° |
| 2026-04-26 06:59 | 49.06016 | 8.14339 | 35243 ft | 467 kts | 125° |
| 2026-04-26 07:00 | 49.02483 | 8.22642 | 35245 ft | 467 kts | 125° |
| 2026-04-26 07:00 | 48.98758 | 8.30800 | 35254 ft | 464 kts | 134° |
| 2026-04-26 07:01 | 48.94166 | 8.37561 | 35241 ft | 463 kts | 136° |
| 2026-04-26 07:01 | 48.89741 | 8.44693 | 35242 ft | 464 kts | 135° |
| 2026-04-26 07:02 | 48.85298 | 8.51880 | 35239 ft | 463 kts | 135° |
| 2026-04-26 07:02 | 48.80868 | 8.58999 | 35242 ft | 463 kts | 136° |
| 2026-04-26 07:03 | 48.76437 | 8.66083 | 35239 ft | 463 kts | 136° |
| 2026-04-26 07:03 | 48.72023 | 8.73130 | 35241 ft | 464 kts | 136° |
| 2026-04-26 07:04 | 48.67554 | 8.80227 | 35245 ft | 466 kts | 136° |
| 2026-04-26 07:04 | 48.63076 | 8.87316 | 35246 ft | 466 kts | 136° |
| 2026-04-26 07:05 | 48.58589 | 8.94414 | 35243 ft | 466 kts | 136° |
| 2026-04-26 07:05 | 48.54105 | 9.01494 | 35248 ft | 466 kts | 136° |
| 2026-04-26 07:06 | 48.49612 | 9.08563 | 35236 ft | 466 kts | 136° |
| 2026-04-26 07:06 | 48.45141 | 9.15575 | 35237 ft | 467 kts | 136° |
| 2026-04-26 07:07 | 48.40636 | 9.22619 | 35237 ft | 467 kts | 136° |
| 2026-04-26 07:07 | 48.36131 | 9.29652 | 35229 ft | 467 kts | 136° |
| 2026-04-26 07:08 | 48.31618 | 9.36672 | 35231 ft | 467 kts | 136° |
| 2026-04-26 07:08 | 48.27097 | 9.43680 | 35236 ft | 467 kts | 136° |
| 2026-04-26 07:09 | 48.22268 | 9.50144 | 35235 ft | 465 kts | 142° |
| 2026-04-26 07:09 | 48.17267 | 9.56303 | 35237 ft | 465 kts | 142° |
| 2026-04-26 07:11 | 48.04802 | 9.71601 | 35238 ft | 465 kts | 143° |
| 2026-04-26 07:11 | 47.99794 | 9.77702 | 35236 ft | 465 kts | 143° |
| 2026-04-26 07:12 | 47.94788 | 9.83801 | 35234 ft | 465 kts | 142° |
| 2026-04-26 07:12 | 47.89764 | 9.89896 | 35232 ft | 465 kts | 142° |
| 2026-04-26 07:13 | 47.84738 | 9.95970 | 35232 ft | 465 kts | 142° |
| 2026-04-26 07:13 | 47.79716 | 10.02041 | 35219 ft | 465 kts | 142° |
| 2026-04-26 07:14 | 47.74696 | 10.08108 | 35221 ft | 465 kts | 142° |
| 2026-04-26 07:14 | 47.69661 | 10.14155 | 35220 ft | 465 kts | 142° |
| 2026-04-26 07:15 | 47.64613 | 10.20198 | 35214 ft | 466 kts | 142° |
| 2026-04-26 07:15 | 47.59560 | 10.26232 | 35217 ft | 466 kts | 143° |
| 2026-04-26 07:16 | 47.54404 | 10.32047 | 35210 ft | 465 kts | 148° |
| 2026-04-26 07:16 | 47.49032 | 10.37282 | 35215 ft | 465 kts | 148° |
| 2026-04-26 07:17 | 47.43624 | 10.42537 | 35217 ft | 465 kts | 148° |
| 2026-04-26 07:17 | 47.38217 | 10.47778 | 35216 ft | 466 kts | 148° |
| 2026-04-26 07:18 | 47.32791 | 10.53017 | 35218 ft | 466 kts | 148° |
| 2026-04-26 07:18 | 47.27357 | 10.58259 | 35221 ft | 467 kts | 147° |
| 2026-04-26 07:19 | 47.22026 | 10.63749 | 35232 ft | 468 kts | 145° |
| 2026-04-26 07:19 | 47.16772 | 10.69408 | 35231 ft | 468 kts | 145° |
| 2026-04-26 07:20 | 47.11494 | 10.75017 | 35229 ft | 468 kts | 146° |
| 2026-04-26 07:20 | 47.06176 | 10.80540 | 35238 ft | 469 kts | 146° |
| 2026-04-26 07:21 | 47.00854 | 10.86062 | 35234 ft | 468 kts | 146° |
| 2026-04-26 07:21 | 46.95540 | 10.91585 | 35238 ft | 468 kts | 146° |
| 2026-04-26 07:22 | 46.90225 | 10.97095 | 35237 ft | 468 kts | 146° |
| 2026-04-26 07:22 | 46.84934 | 11.02560 | 35214 ft | 468 kts | 146° |
| 2026-04-26 07:23 | 46.79885 | 11.08540 | 35217 ft | 470 kts | 134° |
| 2026-04-26 07:23 | 46.75400 | 11.15568 | 35214 ft | 470 kts | 134° |
| 2026-04-26 07:24 | 46.70924 | 11.22517 | 35205 ft | 470 kts | 134° |
| 2026-04-26 07:24 | 46.66466 | 11.29422 | 35181 ft | 471 kts | 134° |
| 2026-04-26 07:25 | 46.61975 | 11.36362 | 35169 ft | 471 kts | 134° |
| 2026-04-26 07:25 | 46.57484 | 11.43293 | 35170 ft | 471 kts | 134° |
| 2026-04-26 07:26 | 46.52994 | 11.50217 | 35171 ft | 470 kts | 134° |
| 2026-04-26 07:26 | 46.48499 | 11.57115 | 35167 ft | 470 kts | 134° |
| 2026-04-26 07:27 | 46.43991 | 11.64006 | 35157 ft | 471 kts | 134° |
| 2026-04-26 07:27 | 46.40239 | 11.69734 | 35146 ft | 471 kts | 134° |
| 2026-04-26 07:28 | 46.35835 | 11.76748 | 35132 ft | 471 kts | 130° |
| 2026-04-26 07:28 | 46.31722 | 11.84133 | 35128 ft | 471 kts | 128° |
| 2026-04-26 07:29 | 46.27659 | 11.91557 | 35128 ft | 471 kts | 129° |
| 2026-04-26 07:29 | 46.23508 | 11.98890 | 35122 ft | 471 kts | 130° |
| 2026-04-26 07:30 | 46.19300 | 12.06152 | 35116 ft | 472 kts | 130° |
| 2026-04-26 07:30 | 46.15086 | 12.13426 | 35111 ft | 473 kts | 130° |
| 2026-04-26 07:31 | 46.10882 | 12.20722 | 35118 ft | 473 kts | 130° |
| 2026-04-26 07:31 | 46.06676 | 12.28014 | 35099 ft | 473 kts | 130° |
| 2026-04-26 07:32 | 46.02461 | 12.35280 | 35096 ft | 473 kts | 130° |
| 2026-04-26 07:32 | 45.98234 | 12.42542 | 35097 ft | 473 kts | 130° |
| 2026-04-26 07:33 | 45.94007 | 12.49797 | 35088 ft | 474 kts | 130° |
| 2026-04-26 07:33 | 45.89800 | 12.56998 | 35088 ft | 474 kts | 130° |
| 2026-04-26 07:34 | 45.85553 | 12.64231 | 35088 ft | 473 kts | 130° |
| 2026-04-26 07:34 | 45.81283 | 12.71499 | 35087 ft | 473 kts | 130° |
| 2026-04-26 07:35 | 45.77044 | 12.78709 | 35084 ft | 473 kts | 130° |
| 2026-04-26 07:35 | 45.72824 | 12.85860 | 35098 ft | 473 kts | 130° |
| 2026-04-26 07:36 | 45.68564 | 12.93042 | 35087 ft | 473 kts | 130° |
| 2026-04-26 07:36 | 45.64305 | 13.00209 | 35095 ft | 473 kts | 130° |
| 2026-04-26 07:37 | 45.60044 | 13.07373 | 35097 ft | 473 kts | 130° |
| 2026-04-26 07:37 | 45.55771 | 13.14541 | 35106 ft | 473 kts | 130° |
| 2026-04-26 07:38 | 45.51497 | 13.21681 | 35112 ft | 474 kts | 130° |
| 2026-04-26 07:38 | 45.47209 | 13.28819 | 35103 ft | 474 kts | 130° |
| 2026-04-26 07:39 | 45.42948 | 13.35904 | 35100 ft | 473 kts | 130° |
| 2026-04-26 07:39 | 45.38662 | 13.43027 | 35115 ft | 473 kts | 130° |
| 2026-04-26 07:40 | 45.34367 | 13.50136 | 35104 ft | 474 kts | 130° |
| 2026-04-26 07:40 | 45.30070 | 13.57229 | 35106 ft | 474 kts | 130° |
| 2026-04-26 07:41 | 45.25766 | 13.64301 | 35109 ft | 473 kts | 130° |
| 2026-04-26 07:41 | 45.21457 | 13.71366 | 35104 ft | 473 kts | 130° |
| 2026-04-26 07:42 | 45.17151 | 13.78424 | 35091 ft | 473 kts | 130° |
| 2026-04-26 07:42 | 45.12844 | 13.85463 | 35094 ft | 473 kts | 131° |
| 2026-04-26 07:43 | 45.08557 | 13.92450 | 35085 ft | 473 kts | 131° |
| 2026-04-26 07:43 | 45.04238 | 13.99471 | 35084 ft | 472 kts | 131° |
| 2026-04-26 07:44 | 44.99919 | 14.06473 | 35089 ft | 472 kts | 131° |
| 2026-04-26 07:44 | 44.95592 | 14.13466 | 35085 ft | 472 kts | 131° |
| 2026-04-26 07:45 | 44.91263 | 14.20451 | 35086 ft | 472 kts | 131° |
| 2026-04-26 07:45 | 44.86936 | 14.27418 | 35080 ft | 472 kts | 131° |
| 2026-04-26 07:46 | 44.82606 | 14.34376 | 35093 ft | 472 kts | 131° |
| 2026-04-26 07:46 | 44.78265 | 14.41315 | 35087 ft | 472 kts | 131° |
| 2026-04-26 07:47 | 44.73915 | 14.48252 | 35086 ft | 472 kts | 131° |
| 2026-04-26 07:47 | 44.69569 | 14.55177 | 35087 ft | 472 kts | 131° |
| 2026-04-26 07:48 | 44.65224 | 14.62098 | 35077 ft | 472 kts | 131° |
| 2026-04-26 07:48 | 44.60898 | 14.68969 | 35089 ft | 472 kts | 131° |
| 2026-04-26 07:49 | 44.56531 | 14.75867 | 35089 ft | 472 kts | 131° |
| 2026-04-26 07:49 | 44.52167 | 14.82740 | 35085 ft | 472 kts | 132° |
| 2026-04-26 07:50 | 44.45615 | 14.93053 | 35087 ft | 472 kts | 131° |
| 2026-04-26 07:50 | 44.41241 | 14.99923 | 35091 ft | 472 kts | 132° |
| 2026-04-26 07:51 | 44.36863 | 15.06767 | 35097 ft | 472 kts | 132° |
| 2026-04-26 07:51 | 44.32479 | 15.13610 | 35084 ft | 472 kts | 132° |
| 2026-04-26 07:52 | 44.28121 | 15.20383 | 35101 ft | 472 kts | 132° |
| 2026-04-26 07:52 | 44.23731 | 15.27194 | 35106 ft | 472 kts | 132° |
| 2026-04-26 07:53 | 44.19339 | 15.34006 | 35105 ft | 472 kts | 132° |
| 2026-04-26 07:53 | 44.14946 | 15.40807 | 35121 ft | 472 kts | 133° |
| 2026-04-26 07:54 | 44.10538 | 15.47594 | 35098 ft | 472 kts | 133° |
| 2026-04-26 07:54 | 44.06134 | 15.54369 | 35101 ft | 472 kts | 133° |
| 2026-04-26 07:55 | 44.01731 | 15.61138 | 35106 ft | 472 kts | 133° |
| 2026-04-26 07:55 | 43.97324 | 15.67897 | 35088 ft | 472 kts | 133° |
| 2026-04-26 07:56 | 43.92933 | 15.74598 | 35090 ft | 472 kts | 133° |
| 2026-04-26 07:56 | 43.88502 | 15.81333 | 35083 ft | 472 kts | 133° |
| 2026-04-26 07:57 | 43.84069 | 15.88059 | 35081 ft | 473 kts | 133° |
| 2026-04-26 07:57 | 43.79626 | 15.94797 | 35082 ft | 473 kts | 133° |
| 2026-04-26 07:58 | 43.75181 | 16.01528 | 35084 ft | 473 kts | 133° |
| 2026-04-26 07:58 | 43.70733 | 16.08251 | 35079 ft | 474 kts | 133° |
| 2026-04-26 07:59 | 43.66305 | 16.14919 | 35081 ft | 474 kts | 133° |
| 2026-04-26 07:59 | 43.61843 | 16.21620 | 35080 ft | 474 kts | 133° |
| 2026-04-26 08:00 | 43.57382 | 16.28313 | 35084 ft | 474 kts | 133° |
| 2026-04-26 08:00 | 43.52912 | 16.35005 | 35088 ft | 474 kts | 134° |
| 2026-04-26 08:01 | 43.48426 | 16.41689 | 35086 ft | 475 kts | 134° |
| 2026-04-26 08:01 | 43.43938 | 16.48363 | 35090 ft | 475 kts | 134° |
| 2026-04-26 08:02 | 43.39436 | 16.55038 | 35079 ft | 475 kts | 134° |
| 2026-04-26 08:02 | 43.34935 | 16.61707 | 35086 ft | 476 kts | 134° |
| 2026-04-26 08:03 | 43.30423 | 16.68373 | 35090 ft | 476 kts | 134° |
| 2026-04-26 08:03 | 43.25906 | 16.75029 | 35089 ft | 477 kts | 134° |
| 2026-04-26 08:04 | 43.21381 | 16.81683 | 35091 ft | 477 kts | 134° |
| 2026-04-26 08:04 | 43.16861 | 16.88323 | 35093 ft | 477 kts | 134° |
| 2026-04-26 08:05 | 43.12323 | 16.94969 | 35096 ft | 477 kts | 134° |
| 2026-04-26 08:05 | 43.07776 | 17.01600 | 35098 ft | 478 kts | 135° |
| 2026-04-26 08:06 | 43.03227 | 17.08211 | 35102 ft | 478 kts | 135° |
| 2026-04-26 08:06 | 42.98699 | 17.14793 | 35100 ft | 478 kts | 135° |
| 2026-04-26 08:07 | 42.94145 | 17.21404 | 35098 ft | 478 kts | 135° |
| 2026-04-26 08:07 | 42.89582 | 17.28016 | 35091 ft | 478 kts | 135° |
| 2026-04-26 08:08 | 42.85020 | 17.34609 | 35098 ft | 478 kts | 135° |
| 2026-04-26 08:08 | 42.80450 | 17.41195 | 35100 ft | 478 kts | 135° |
| 2026-04-26 08:09 | 42.75878 | 17.47763 | 35384 ft | 478 kts | 135° |
| 2026-04-26 08:09 | 42.73588 | 17.51047 | 35631 ft | 478 kts | 135° |
| 2026-04-26 08:09 | 42.71300 | 17.54326 | 35883 ft | 478 kts | 135° |
| 2026-04-26 08:10 | 42.69011 | 17.57601 | 36052 ft | 478 kts | 135° |
| 2026-04-26 08:10 | 42.66720 | 17.60871 | 36088 ft | 477 kts | 135° |
| 2026-04-26 08:10 | 42.63880 | 17.64917 | 36088 ft | 476 kts | 135° |
| 2026-04-26 08:11 | 42.59266 | 17.71490 | 36091 ft | 475 kts | 135° |
| 2026-04-26 08:11 | 42.54708 | 17.77975 | 36088 ft | 475 kts | 135° |
| 2026-04-26 08:12 | 42.50141 | 17.84462 | 36083 ft | 475 kts | 135° |
| 2026-04-26 08:12 | 42.45572 | 17.90929 | 36097 ft | 475 kts | 135° |
| 2026-04-26 08:13 | 42.40988 | 17.97400 | 36099 ft | 476 kts | 135° |
| 2026-04-26 08:13 | 42.36431 | 18.03822 | 36099 ft | 476 kts | 135° |
| 2026-04-26 08:14 | 42.31848 | 18.10272 | 36101 ft | 476 kts | 135° |
| 2026-04-26 08:14 | 42.27255 | 18.16713 | 36105 ft | 476 kts | 135° |
| 2026-04-26 08:15 | 42.22664 | 18.23145 | 36106 ft | 476 kts | 136° |
| 2026-04-26 08:15 | 42.18834 | 18.28484 | 36107 ft | 476 kts | 136° |
| 2026-04-26 08:16 | 42.14236 | 18.34889 | 36106 ft | 476 kts | 136° |
| 2026-04-26 08:16 | 42.09637 | 18.41286 | 36104 ft | 475 kts | 136° |
| 2026-04-26 08:17 | 42.05037 | 18.47677 | 36111 ft | 475 kts | 136° |
| 2026-04-26 08:17 | 42.00449 | 18.54072 | 36109 ft | 475 kts | 135° |
| 2026-04-26 08:18 | 41.96090 | 18.60755 | 36111 ft | 476 kts | 131° |
| 2026-04-26 08:18 | 41.91861 | 18.67632 | 36110 ft | 476 kts | 131° |
| 2026-04-26 08:19 | 41.87692 | 18.74548 | 36112 ft | 477 kts | 130° |
| 2026-04-26 08:19 | 41.83529 | 18.81465 | 36112 ft | 476 kts | 131° |
| 2026-04-26 08:20 | 41.79336 | 18.88342 | 36110 ft | 476 kts | 131° |
| 2026-04-26 08:20 | 41.75153 | 18.95157 | 36109 ft | 476 kts | 131° |
| 2026-04-26 08:21 | 41.70949 | 19.02003 | 36110 ft | 476 kts | 131° |
| 2026-04-26 08:21 | 41.66745 | 19.08833 | 36109 ft | 476 kts | 131° |
| 2026-04-26 08:22 | 41.62527 | 19.15666 | 36106 ft | 476 kts | 131° |
| 2026-04-26 08:22 | 41.58309 | 19.22485 | 36096 ft | 476 kts | 131° |
| 2026-04-26 08:23 | 41.54084 | 19.29309 | 36109 ft | 476 kts | 131° |
| 2026-04-26 08:23 | 41.49858 | 19.36113 | 36114 ft | 476 kts | 131° |
| 2026-04-26 08:24 | 41.45633 | 19.42903 | 36120 ft | 476 kts | 131° |
| 2026-04-26 08:24 | 41.41401 | 19.49691 | 36118 ft | 476 kts | 131° |
| 2026-04-26 08:25 | 41.37158 | 19.56477 | 36118 ft | 476 kts | 131° |
| 2026-04-26 08:25 | 41.32918 | 19.63245 | 36114 ft | 476 kts | 131° |
| 2026-04-26 08:26 | 41.28669 | 19.70017 | 36108 ft | 476 kts | 131° |
| 2026-04-26 08:26 | 41.24426 | 19.76754 | 36119 ft | 475 kts | 131° |
| 2026-04-26 08:27 | 41.20178 | 19.83475 | 36115 ft | 475 kts | 131° |
| 2026-04-26 08:27 | 41.15957 | 19.90155 | 36108 ft | 475 kts | 131° |
| 2026-04-26 08:28 | 41.11709 | 19.96873 | 36105 ft | 475 kts | 131° |
| 2026-04-26 08:28 | 41.07461 | 20.03583 | 36097 ft | 475 kts | 131° |
| 2026-04-26 08:29 | 41.03205 | 20.10269 | 36093 ft | 475 kts | 131° |
| 2026-04-26 08:29 | 40.98907 | 20.16984 | 36093 ft | 475 kts | 131° |
| 2026-04-26 08:30 | 40.94664 | 20.23625 | 36086 ft | 475 kts | 131° |
| 2026-04-26 08:30 | 40.90403 | 20.30287 | 36086 ft | 475 kts | 131° |
| 2026-04-26 08:31 | 40.86123 | 20.36956 | 36083 ft | 475 kts | 131° |
| 2026-04-26 08:31 | 40.81843 | 20.43612 | 36084 ft | 475 kts | 131° |
| 2026-04-26 08:32 | 40.77563 | 20.50256 | 36081 ft | 475 kts | 131° |
| 2026-04-26 08:32 | 40.73266 | 20.56903 | 36071 ft | 476 kts | 131° |
| 2026-04-26 08:33 | 40.68970 | 20.63535 | 36075 ft | 475 kts | 131° |
| 2026-04-26 08:33 | 40.64680 | 20.70154 | 36079 ft | 475 kts | 131° |
| 2026-04-26 08:34 | 40.60417 | 20.76710 | 36081 ft | 474 kts | 131° |
| 2026-04-26 08:34 | 40.56122 | 20.83295 | 36084 ft | 474 kts | 131° |
| 2026-04-26 08:35 | 40.51815 | 20.89874 | 36082 ft | 474 kts | 131° |
| 2026-04-26 08:35 | 40.47421 | 20.96326 | 36080 ft | 473 kts | 138° |
| 2026-04-26 08:36 | 40.42481 | 21.02048 | 36079 ft | 472 kts | 139° |
| 2026-04-26 08:36 | 40.37552 | 21.07736 | 36082 ft | 472 kts | 139° |
| 2026-04-26 08:37 | 40.32625 | 21.13406 | 36085 ft | 471 kts | 139° |
| 2026-04-26 08:37 | 40.27689 | 21.19065 | 36090 ft | 471 kts | 139° |
| 2026-04-26 08:38 | 40.22753 | 21.24720 | 36090 ft | 472 kts | 139° |
| 2026-04-26 08:38 | 40.17810 | 21.30373 | 36081 ft | 472 kts | 139° |
| 2026-04-26 08:39 | 40.12865 | 21.36024 | 36094 ft | 471 kts | 139° |
| 2026-04-26 08:39 | 40.07928 | 21.41655 | 36091 ft | 471 kts | 139° |
| 2026-04-26 08:40 | 40.02990 | 21.47268 | 36088 ft | 471 kts | 139° |
| 2026-04-26 08:40 | 39.98050 | 21.52869 | 36086 ft | 470 kts | 139° |
| 2026-04-26 08:41 | 39.93166 | 21.58460 | 36085 ft | 470 kts | 138° |
| 2026-04-26 08:41 | 39.88351 | 21.64240 | 36085 ft | 470 kts | 137° |
| 2026-04-26 08:42 | 39.83576 | 21.70040 | 36083 ft | 469 kts | 137° |
| 2026-04-26 08:42 | 39.78774 | 21.75801 | 36082 ft | 469 kts | 137° |
| 2026-04-26 08:43 | 39.73954 | 21.81517 | 36082 ft | 469 kts | 137° |
| 2026-04-26 08:43 | 39.69132 | 21.87226 | 36077 ft | 469 kts | 137° |
| 2026-04-26 08:44 | 39.64303 | 21.92939 | 36074 ft | 469 kts | 137° |
| 2026-04-26 08:44 | 39.59478 | 21.98649 | 36079 ft | 469 kts | 137° |
| 2026-04-26 08:45 | 39.54646 | 22.04350 | 36078 ft | 469 kts | 137° |
| 2026-04-26 08:45 | 39.49828 | 22.10031 | 36087 ft | 469 kts | 137° |
| 2026-04-26 08:46 | 39.44996 | 22.15708 | 36090 ft | 469 kts | 137° |
| 2026-04-26 08:46 | 39.40172 | 22.21374 | 36088 ft | 469 kts | 137° |
| 2026-04-26 08:47 | 39.35367 | 22.26999 | 36081 ft | 469 kts | 137° |
| 2026-04-26 08:47 | 39.30528 | 22.32642 | 36083 ft | 469 kts | 137° |
| 2026-04-26 08:48 | 39.25687 | 22.38271 | 36086 ft | 468 kts | 137° |
| 2026-04-26 08:48 | 39.20848 | 22.43907 | 36085 ft | 468 kts | 137° |
| 2026-04-26 08:49 | 39.16013 | 22.49537 | 36090 ft | 469 kts | 136° |
| 2026-04-26 08:49 | 39.11161 | 22.55164 | 36078 ft | 469 kts | 136° |
| 2026-04-26 08:50 | 39.06312 | 22.60779 | 36073 ft | 469 kts | 136° |
| 2026-04-26 08:50 | 39.01454 | 22.66384 | 36077 ft | 469 kts | 136° |
| 2026-04-26 08:51 | 38.94166 | 22.74771 | 36079 ft | 469 kts | 136° |
| 2026-04-26 08:52 | 38.89307 | 22.80354 | 36096 ft | 469 kts | 136° |
| 2026-04-26 08:52 | 38.84444 | 22.85933 | 36091 ft | 469 kts | 136° |
| 2026-04-26 08:53 | 38.79578 | 22.91511 | 36089 ft | 469 kts | 136° |
| 2026-04-26 08:53 | 38.74706 | 22.97079 | 36089 ft | 469 kts | 136° |
| 2026-04-26 08:54 | 38.69831 | 23.02635 | 36086 ft | 469 kts | 136° |
| 2026-04-26 08:54 | 38.64967 | 23.08179 | 36085 ft | 469 kts | 136° |
| 2026-04-26 08:55 | 38.60125 | 23.13679 | 36091 ft | 468 kts | 136° |
| 2026-04-26 08:55 | 38.55253 | 23.19199 | 36091 ft | 468 kts | 136° |
| 2026-04-26 08:56 | 38.50377 | 23.24707 | 36090 ft | 467 kts | 136° |
| 2026-04-26 08:56 | 38.45478 | 23.30236 | 36090 ft | 467 kts | 136° |
| 2026-04-26 08:57 | 38.40643 | 23.35697 | 36086 ft | 467 kts | 136° |
| 2026-04-26 08:57 | 38.35775 | 23.41176 | 36082 ft | 467 kts | 136° |
| 2026-04-26 08:58 | 38.30906 | 23.46649 | 36077 ft | 467 kts | 136° |
| 2026-04-26 08:58 | 38.26829 | 23.51230 | 36065 ft | 466 kts | 136° |
| 2026-04-26 08:59 | 38.21957 | 23.56679 | 36056 ft | 466 kts | 136° |
| 2026-04-26 08:59 | 38.17121 | 23.62087 | 36049 ft | 466 kts | 136° |
| 2026-04-26 09:00 | 38.12251 | 23.67522 | 36042 ft | 466 kts | 136° |
| 2026-04-26 09:00 | 38.07385 | 23.72938 | 36047 ft | 466 kts | 136° |
| 2026-04-26 09:01 | 38.02506 | 23.78356 | 36065 ft | 466 kts | 136° |
| 2026-04-26 09:01 | 37.97623 | 23.83773 | 36066 ft | 466 kts | 136° |
| 2026-04-26 09:02 | 37.92748 | 23.89180 | 36078 ft | 465 kts | 135° |
| 2026-04-26 09:02 | 37.87869 | 23.94570 | 36075 ft | 465 kts | 135° |
| 2026-04-26 09:03 | 37.82986 | 23.99955 | 36073 ft | 465 kts | 135° |
| 2026-04-26 09:03 | 37.78112 | 24.05322 | 36069 ft | 465 kts | 136° |
| 2026-04-26 09:04 | 37.73260 | 24.10667 | 36077 ft | 465 kts | 135° |
| 2026-04-26 09:04 | 37.68375 | 24.16026 | 36071 ft | 465 kts | 135° |
| 2026-04-26 09:05 | 37.63479 | 24.21379 | 36068 ft | 465 kts | 135° |
| 2026-04-26 09:05 | 37.58593 | 24.26724 | 35892 ft | 464 kts | 135° |
| 2026-04-26 09:05 | 37.56116 | 24.29382 | 35055 ft | 472 kts | 139° |
| 2026-04-26 09:06 | 37.53376 | 24.31722 | 34290 ft | 479 kts | 144° |
| 2026-04-26 09:06 | 37.50535 | 24.33956 | 33521 ft | 482 kts | 144° |
| 2026-04-26 09:06 | 37.47688 | 24.36194 | 32734 ft | 484 kts | 144° |
| 2026-04-26 09:06 | 37.44819 | 24.38448 | 31919 ft | 487 kts | 144° |
| 2026-04-26 09:07 | 37.41947 | 24.40702 | 31133 ft | 489 kts | 143° |
| 2026-04-26 09:07 | 37.39051 | 24.42974 | 30348 ft | 491 kts | 143° |
| 2026-04-26 09:07 | 37.36140 | 24.45253 | 29434 ft | 493 kts | 144° |
| 2026-04-26 09:07 | 37.33228 | 24.47532 | 28454 ft | 494 kts | 144° |
| 2026-04-26 09:08 | 37.30300 | 24.49823 | 27478 ft | 496 kts | 144° |
| 2026-04-26 09:08 | 37.27383 | 24.52102 | 26687 ft | 493 kts | 144° |
| 2026-04-26 09:08 | 37.24471 | 24.54369 | 25806 ft | 492 kts | 144° |
| 2026-04-26 09:08 | 37.21568 | 24.56625 | 25020 ft | 489 kts | 145° |
| 2026-04-26 09:09 | 37.18689 | 24.58863 | 24303 ft | 484 kts | 145° |
| 2026-04-26 09:09 | 37.15841 | 24.61080 | 23620 ft | 479 kts | 145° |
| 2026-04-26 09:09 | 37.13023 | 24.63275 | 22824 ft | 474 kts | 145° |
| 2026-04-26 09:09 | 37.10275 | 24.65414 | 22043 ft | 468 kts | 145° |
| 2026-04-26 09:10 | 37.07525 | 24.67548 | 21283 ft | 463 kts | 145° |
| 2026-04-26 09:10 | 37.04798 | 24.69661 | 20539 ft | 458 kts | 146° |
| 2026-04-26 09:10 | 37.02106 | 24.71748 | 19816 ft | 453 kts | 146° |
| 2026-04-26 09:10 | 36.99439 | 24.73814 | 19106 ft | 448 kts | 146° |
| 2026-04-26 09:11 | 36.96809 | 24.75853 | 18412 ft | 443 kts | 146° |
| 2026-04-26 09:11 | 36.94199 | 24.77877 | 17637 ft | 439 kts | 146° |
| 2026-04-26 09:11 | 36.91620 | 24.79874 | 16886 ft | 434 kts | 146° |
| 2026-04-26 09:11 | 36.89068 | 24.81848 | 16207 ft | 429 kts | 146° |
| 2026-04-26 09:12 | 36.86542 | 24.83804 | 15545 ft | 424 kts | 146° |
| 2026-04-26 09:12 | 36.84046 | 24.85732 | 14903 ft | 420 kts | 146° |
| 2026-04-26 09:12 | 36.81572 | 24.87641 | 14293 ft | 416 kts | 146° |
| 2026-04-26 09:12 | 36.79119 | 24.89534 | 13688 ft | 412 kts | 146° |
| 2026-04-26 09:13 | 36.76697 | 24.91403 | 13020 ft | 407 kts | 146° |
| 2026-04-26 09:13 | 36.74304 | 24.93252 | 12267 ft | 404 kts | 146° |
| 2026-04-26 09:13 | 36.72142 | 24.95473 | 11355 ft | 403 kts | 129° |
| 2026-04-26 09:13 | 36.70633 | 24.98311 | 11162 ft | 382 kts | 114° |
| 2026-04-26 09:14 | 36.69801 | 25.01345 | 11054 ft | 361 kts | 99° |
| 2026-04-26 09:14 | 36.69437 | 25.04370 | 10879 ft | 345 kts | 97° |
| 2026-04-26 09:14 | 36.69126 | 25.07234 | 10734 ft | 331 kts | 96° |
| 2026-04-26 09:14 | 36.68832 | 25.10027 | 10587 ft | 320 kts | 96° |
| 2026-04-26 09:15 | 36.68553 | 25.12731 | 10448 ft | 310 kts | 96° |
| 2026-04-26 09:15 | 36.68284 | 25.15362 | 10307 ft | 302 kts | 96° |
| 2026-04-26 09:15 | 36.67788 | 25.17852 | 10171 ft | 295 kts | 117° |
| 2026-04-26 09:15 | 36.66555 | 25.19890 | 9791 ft | 298 kts | 131° |
| 2026-04-26 09:16 | 36.65037 | 25.21660 | 9367 ft | 300 kts | 137° |
| 2026-04-26 09:16 | 36.63415 | 25.23296 | 8975 ft | 301 kts | 140° |
| 2026-04-26 09:16 | 36.61766 | 25.24900 | 8572 ft | 301 kts | 140° |
| 2026-04-26 09:16 | 36.60118 | 25.26523 | 8173 ft | 301 kts | 139° |
| 2026-04-26 09:17 | 36.58492 | 25.28167 | 7765 ft | 299 kts | 138° |
| 2026-04-26 09:17 | 36.56927 | 25.29786 | 7384 ft | 287 kts | 137° |
| 2026-04-26 09:17 | 36.55428 | 25.31358 | 7008 ft | 277 kts | 137° |
| 2026-04-26 09:17 | 36.53992 | 25.32894 | 6650 ft | 267 kts | 133° |
| 2026-04-26 09:18 | 36.52822 | 25.34665 | 5831 ft | 272 kts | 122° |
| 2026-04-26 09:18 | 36.51724 | 25.36656 | 4895 ft | 283 kts | 120° |
| 2026-04-26 09:18 | 36.50614 | 25.38715 | 4006 ft | 290 kts | 120° |
| 2026-04-26 09:18 | 36.49480 | 25.40820 | 3130 ft | 295 kts | 120° |
| 2026-04-26 09:19 | 36.48289 | 25.42916 | 2247 ft | 300 kts | 129° |
| 2026-04-26 09:19 | 36.46626 | 25.44516 | 1414 ft | 304 kts | 148° |
| 2026-04-26 09:19 | 36.44820 | 25.45727 | 911 ft | 285 kts | 155° |
| 2026-04-26 09:19 | 36.43078 | 25.46510 | 688 ft | 253 kts | 163° |
| 2026-04-26 09:20 | 36.41453 | 25.47185 | 229 ft | 240 kts | 159° |
| 2026-04-26 09:20 | 36.40015 | 25.47867 | 274 ft | 199 kts | 159° |
| 2026-04-26 09:20 | 36.38728 | 25.48512 | 832 ft | 204 kts | 158° |
| 2026-04-26 09:20 | 36.37316 | 25.49227 | 970 ft | 232 kts | 158° |
| 2026-04-26 09:21 | 36.35869 | 25.49940 | 1140 ft | 219 kts | 156° |
| 2026-04-26 09:21 | 36.34646 | 25.51015 | 1450 ft | 214 kts | 126° |
| 2026-04-26 09:21 | 36.34099 | 25.52649 | 1567 ft | 203 kts | 89° |
| 2026-04-26 09:21 | 36.34433 | 25.54272 | 1675 ft | 194 kts | 56° |
| 2026-04-26 09:22 | 36.35277 | 25.55550 | 1772 ft | 189 kts | 33° |
| 2026-04-26 09:22 | 36.36514 | 25.55968 | 1919 ft | 188 kts | 358° |
| 2026-04-26 09:22 | 36.37816 | 25.55722 | 1997 ft | 189 kts | 350° |
| 2026-04-26 09:22 | 36.39093 | 25.55376 | 2006 ft | 189 kts | 349° |
| 2026-04-26 09:23 | 36.40314 | 25.54751 | 2017 ft | 192 kts | 333° |
| 2026-04-26 09:23 | 36.41381 | 25.53750 | 2009 ft | 194 kts | 321° |
| 2026-04-26 09:23 | 36.42361 | 25.52591 | 2007 ft | 194 kts | 319° |
| 2026-04-26 09:23 | 36.43321 | 25.51426 | 2010 ft | 195 kts | 319° |
| 2026-04-26 09:24 | 36.44307 | 25.50266 | 2006 ft | 192 kts | 326° |
| 2026-04-26 09:24 | 36.45375 | 25.49384 | 1969 ft | 178 kts | 330° |
| 2026-04-26 09:24 | 36.46233 | 25.48322 | 1816 ft | 172 kts | 303° |
| 2026-04-26 09:24 | 36.46410 | 25.46896 | 1632 ft | 173 kts | 260° |
| 2026-04-26 09:25 | 36.45705 | 25.45691 | 1450 ft | 178 kts | 211° |
| 2026-04-26 09:25 | 36.44533 | 25.45596 | 1079 ft | 167 kts | 153° |
| 2026-04-26 09:25 | 36.43508 | 25.46224 | 755 ft | 159 kts | 153° |
| 2026-04-26 09:25 | 36.42516 | 25.46697 | 478 ft | 151 kts | 162° |
| 2026-04-26 09:26 | 36.41548 | 25.47146 | 235 ft | 146 kts | 159° |
| 2026-04-26 09:26 | 36.40604 | 25.47590 | 92 ft | 142 kts | 159° |
| 2026-04-26 09:26 | 36.39888 | 25.47930 | 83 ft | 67 kts | 159° |
| 2026-04-26 09:26 | 36.39577 | 25.48078 | 67 ft | 46 kts | 159° |
| 2026-04-26 09:27 | 36.39277 | 25.48219 | 61 ft | 47 kts | 158° |
| 2026-04-26 09:27 | 36.39043 | 25.48318 | 56 ft | 11 kts | 193° |
| 2026-04-26 09:27 | 36.39019 | 25.48269 | 53 ft | 5 kts | 247° |
| 2026-04-26 09:27 | 36.39019 | 25.48268 | 53 ft | 0 kts | 247° |
| 2026-04-26 09:28 | 36.40612 | 25.47586 | 93 ft | 142 kts | 159° |
| 2026-04-26 09:28 | 36.40593 | 25.47595 | 93 ft | 117 kts | 159° |
| 2026-04-26 09:28 | 36.43489 | 25.46235 | 746 ft | 159 kts | 153° |
| 2026-04-26 09:29 | 36.42486 | 25.46710 | 467 ft | 151 kts | 162° |
| 2026-04-26 09:29 | 36.41517 | 25.47161 | 229 ft | 146 kts | 159° |
| 2026-04-26 09:29 | 36.40585 | 25.47599 | 92 ft | 141 kts | 159° |
| 2026-04-26 09:29 | 36.39875 | 25.47936 | 86 ft | 65 kts | 159° |
| 2026-04-26 09:30 | 36.39015 | 25.48257 | 50 ft | 5 kts | 247° |
| 2026-04-26 09:30 | 36.38997 | 25.48186 | 52 ft | 11 kts | 280° |
| 2026-04-26 09:30 | 36.39053 | 25.48155 | 55 ft | 16 kts | 340° |
| 2026-04-26 09:30 | 36.39174 | 25.48102 | 62 ft | 18 kts | 339° |
| 2026-04-26 09:31 | 36.39305 | 25.48041 | 66 ft | 20 kts | 339° |
| 2026-04-26 09:31 | 36.39445 | 25.47970 | 66 ft | 26 kts | 339° |
| 2026-04-26 09:31 | 36.39643 | 25.47880 | 83 ft | 31 kts | 340° |
| 2026-04-26 09:31 | 36.39845 | 25.47786 | 86 ft | 33 kts | 339° |
| 2026-04-26 09:32 | 36.40069 | 25.47675 | 87 ft | 28 kts | 338° |
| 2026-04-26 09:32 | 36.40139 | 25.47588 | 88 ft | 8 kts | 246° |
| 2026-04-26 09:32 | 36.40145 | 25.47542 | 90 ft | 10 kts | 329° |
| 2026-04-26 09:32 | 36.40245 | 25.47490 | 89 ft | 19 kts | 339° |
| 2026-04-26 09:33 | 36.40317 | 25.47433 | 90 ft | 6 kts | 260° |
| 2026-04-26 09:33 | 36.40309 | 25.47416 | 90 ft | 4 kts | 247° |
| 2026-04-26 09:33 | 36.40303 | 25.47397 | 92 ft | 2 kts | 249° |
| 2026-04-26 09:33 | 36.40303 | 25.47396 | 92 ft | 0 kts | 249° |
| 2026-04-26 09:51 | 36.40303 | 25.47397 | 90 ft | 0 kts | 249° |
| 2026-04-26 10:00 | 36.40304 | 25.47397 | 90 ft | 0 kts | 249° |